Time;durP1;ratioP1;P1;durP2;ratioP2;P2;SDS_P1;SDS_P2;PMS_P1;PMS_P2;Temp;Humidity;BMP_temperature;BMP_pressure;BME280_temperature;BME280_humidity;BME280_pressure;Samples;Min_cycle;Max_cycle;Signal;HPM_P1;HPM_P2
2023/09/15 00:01:13;;;;;;;5.22;2.28;;;;;;;;;;5818163;28;20661;-74
2023/09/15 00:04:06;;;;;;;2.30;1.55;;;;;;;;;;5817730;28;20122;-72
2023/09/15 00:06:57;;;;;;;1.77;1.35;;;;;;;;;;5819785;28;20069;-71
2023/09/15 00:09:48;;;;;;;3.00;1.75;;;;;;;;;;5834454;28;20517;-74
2023/09/15 00:12:42;;;;;;;5.38;2.63;;;;;;;;;;5819108;28;20068;-72
2023/09/15 00:15:34;;;;;;;3.10;1.92;;;;;;;;;;5819243;28;20068;-72
2023/09/15 00:18:26;;;;;;;1.50;1.40;;;;;;;;;;5819161;28;20050;-71
2023/09/15 00:21:16;;;;;;;1.95;1.60;;;;;;;;;;5819146;28;20061;-73
2023/09/15 00:24:08;;;;;;;4.95;1.90;;;;;;;;;;5818985;28;20406;-72
2023/09/15 00:26:58;;;;;;;1.15;1.05;;;;;;;;;;5819350;28;20054;-73
2023/09/15 00:29:49;;;;;;;0.93;0.88;;;;;;;;;;5819009;28;20474;-73
2023/09/15 00:32:40;;;;;;;2.90;1.98;;;;;;;;;;5818774;28;20050;-73
2023/09/15 00:35:31;;;;;;;3.15;1.58;;;;;;;;;;5818510;28;20055;-71
2023/09/15 00:38:22;;;;;;;8.50;1.50;;;;;;;;;;5818684;28;20363;-73
2023/09/15 00:41:13;;;;;;;1.15;1.00;;;;;;;;;;5801039;28;20133;-71
2023/09/15 00:44:04;;;;;;;5.38;3.17;;;;;;;;;;5817254;28;20053;-72
2023/09/15 00:46:55;;;;;;;7.68;3.65;;;;;;;;;;5818900;28;20046;-73
2023/09/15 00:49:45;;;;;;;3.67;2.40;;;;;;;;;;5818575;28;20061;-73
2023/09/15 00:52:36;;;;;;;6.07;2.88;;;;;;;;;;5817130;28;20054;-71
2023/09/15 00:55:29;;;;;;;10.63;5.10;;;;;;;;;;5818421;28;20043;-73
2023/09/15 00:58:20;;;;;;;12.20;4.78;;;;;;;;;;5818352;28;20050;-74
2023/09/15 01:01:11;;;;;;;11.13;4.35;;;;;;;;;;5833228;28;20058;-73
2023/09/15 01:04:02;;;;;;;6.13;3.33;;;;;;;;;;5817010;28;20054;-72
2023/09/15 01:06:55;;;;;;;7.28;4.18;;;;;;;;;;5817379;28;20050;-72
2023/09/15 01:09:45;;;;;;;5.95;4.10;;;;;;;;;;5817069;28;20097;-74
2023/09/15 01:12:36;;;;;;;3.35;2.42;;;;;;;;;;5818096;28;20050;-72
2023/09/15 01:15:46;;;;;;;3.92;2.35;;;;;;;;;;5816716;28;20118;-71
2023/09/15 01:19:20;;;;;;;2.72;2.03;;;;;;;;;;5818256;28;20046;-73
2023/09/15 01:22:51;;;;;;;9.32;3.83;;;;;;;;;;5818853;28;20042;-71
2023/09/15 01:26:13;;;;;;;3.05;2.22;;;;;;;;;;5832971;28;20061;-71
2023/09/15 01:29:37;;;;;;;6.25;2.88;;;;;;;;;;5817711;28;20050;-72
2023/09/15 01:32:28;;;;;;;3.55;2.47;;;;;;;;;;5818039;28;20493;-71
2023/09/15 01:35:19;;;;;;;2.95;1.75;;;;;;;;;;5816790;28;20494;-73
2023/09/15 01:38:10;;;;;;;5.10;2.45;;;;;;;;;;5817996;28;20506;-72
2023/09/15 01:41:01;;;;;;;5.05;3.15;;;;;;;;;;5818041;28;20051;-73
2023/09/15 01:43:53;;;;;;;5.15;2.65;;;;;;;;;;5818432;28;20047;-71
2023/09/15 01:46:44;;;;;;;5.20;2.42;;;;;;;;;;5820558;28;20049;-72
2023/09/15 01:49:37;;;;;;;3.15;2.28;;;;;;;;;;5822512;28;20046;-72
2023/09/15 01:52:28;;;;;;;3.58;2.40;;;;;;;;;;5820824;28;20060;-72
2023/09/15 01:55:21;;;;;;;5.28;2.50;;;;;;;;;;5822021;28;20051;-75
2023/09/15 01:58:12;;;;;;;5.97;2.70;;;;;;;;;;5820833;28;20168;-72
2023/09/15 02:01:03;;;;;;;5.40;2.38;;;;;;;;;;5836896;28;20054;-72
2023/09/15 02:03:54;;;;;;;2.05;1.77;;;;;;;;;;5822205;28;20043;-73
2023/09/15 02:06:44;;;;;;;1.63;1.52;;;;;;;;;;5822111;28;20394;-71
2023/09/15 02:09:35;;;;;;;3.10;1.70;;;;;;;;;;5821744;28;20057;-72
2023/09/15 02:12:26;;;;;;;4.13;1.88;;;;;;;;;;5821656;28;20410;-72
2023/09/15 02:15:17;;;;;;;2.83;2.30;;;;;;;;;;5821928;28;20043;-72
2023/09/15 02:18:08;;;;;;;3.08;2.30;;;;;;;;;;5821596;28;20150;-72
2023/09/15 02:21:00;;;;;;;7.95;3.05;;;;;;;;;;5822049;28;20054;-73
2023/09/15 02:23:51;;;;;;;4.25;1.92;;;;;;;;;;5820432;28;20038;-73
2023/09/15 02:26:42;;;;;;;4.53;2.53;;;;;;;;;;5821406;28;20061;-72
2023/09/15 02:29:33;;;;;;;2.85;1.83;;;;;;;;;;5821413;28;20053;-72
2023/09/15 02:32:24;;;;;;;1.00;0.90;;;;;;;;;;5821277;28;20051;-73
2023/09/15 02:35:14;;;;;;;5.72;2.30;;;;;;;;;;5821349;28;20061;-73
2023/09/15 02:38:06;;;;;;;13.30;2.75;;;;;;;;;;5821391;28;20482;-73
2023/09/15 02:40:56;;;;;;;2.67;2.13;;;;;;;;;;5836582;28;20055;-72
2023/09/15 02:43:47;;;;;;;3.45;1.30;;;;;;;;;;5821131;28;20060;-76
2023/09/15 02:46:38;;;;;;;3.60;2.25;;;;;;;;;;5821143;28;20133;-73
2023/09/15 02:49:30;;;;;;;2.33;1.65;;;;;;;;;;5820972;28;20050;-73
2023/09/15 02:52:20;;;;;;;2.03;1.63;;;;;;;;;;5820751;28;20046;-72
2023/09/15 02:55:11;;;;;;;5.57;2.50;;;;;;;;;;5820851;28;20050;-72
2023/09/15 02:58:02;;;;;;;7.30;2.83;;;;;;;;;;5819627;28;20501;-73
2023/09/15 03:00:54;;;;;;;2.25;1.90;;;;;;;;;;5821303;28;20149;-73
2023/09/15 03:03:48;;;;;;;5.20;2.38;;;;;;;;;;5811246;28;20043;-72
2023/09/15 03:06:40;;;;;;;3.45;2.00;;;;;;;;;;5812315;28;20042;-71
2023/09/15 03:09:31;;;;;;;2.72;1.50;;;;;;;;;;5820297;28;20046;-73
2023/09/15 03:12:22;;;;;;;2.45;1.40;;;;;;;;;;5819844;28;20053;-72
2023/09/15 03:15:12;;;;;;;1.55;1.40;;;;;;;;;;5820379;28;20490;-72
2023/09/15 03:18:04;;;;;;;3.53;1.48;;;;;;;;;;5820454;28;20053;-71
2023/09/15 03:20:55;;;;;;;2.70;1.67;;;;;;;;;;5820459;28;20046;-73
2023/09/15 03:23:49;;;;;;;3.75;1.73;;;;;;;;;;5819093;28;20532;-71
2023/09/15 03:26:40;;;;;;;3.67;1.58;;;;;;;;;;5820218;28;20056;-73
2023/09/15 03:29:31;;;;;;;1.40;1.30;;;;;;;;;;5835108;28;20054;-72
2023/09/15 03:32:22;;;;;;;2.30;1.75;;;;;;;;;;5820027;28;20038;-72
2023/09/15 03:35:13;;;;;;;2.30;1.85;;;;;;;;;;5820400;28;20412;-73
2023/09/15 03:38:04;;;;;;;4.60;2.25;;;;;;;;;;5819991;28;20042;-72
2023/09/15 03:40:55;;;;;;;3.35;2.65;;;;;;;;;;5820370;28;20081;-73
2023/09/15 03:43:46;;;;;;;1.65;1.52;;;;;;;;;;5819944;28;20042;-74
2023/09/15 03:46:39;;;;;;;2.95;2.15;;;;;;;;;;5819811;28;20057;-73
2023/09/15 03:49:30;;;;;;;2.85;1.48;;;;;;;;;;5819637;28;20050;-72
2023/09/15 03:52:21;;;;;;;1.85;1.58;;;;;;;;;;5819703;28;20057;-71
2023/09/15 03:55:12;;;;;;;2.00;1.67;;;;;;;;;;5819733;28;20544;-72
2023/09/15 03:58:04;;;;;;;3.95;3.17;;;;;;;;;;5818183;28;20417;-73
2023/09/15 04:00:55;;;;;;;3.20;2.33;;;;;;;;;;5820078;28;20050;-72
2023/09/15 04:03:46;;;;;;;3.53;2.60;;;;;;;;;;5819700;28;20050;-71
2023/09/15 04:06:38;;;;;;;3.08;2.42;;;;;;;;;;5819521;28;20046;-71
2023/09/15 04:09:28;;;;;;;3.10;1.60;;;;;;;;;;5818515;28;20042;-71
2023/09/15 04:12:19;;;;;;;2.15;1.85;;;;;;;;;;5819137;28;20075;-71
2023/09/15 04:15:11;;;;;;;2.40;1.98;;;;;;;;;;5817635;28;20054;-73
2023/09/15 04:18:04;;;;;;;4.03;2.60;;;;;;;;;;5819249;28;20046;-72
2023/09/15 04:20:55;;;;;;;4.20;2.45;;;;;;;;;;5819567;28;20054;-72
2023/09/15 04:23:46;;;;;;;3.25;2.20;;;;;;;;;;5819082;28;20053;-75
2023/09/15 04:26:37;;;;;;;2.83;2.30;;;;;;;;;;5818998;28;20057;-73
2023/09/15 04:29:28;;;;;;;3.65;2.03;;;;;;;;;;5818685;28;20050;-71
2023/09/15 04:32:19;;;;;;;4.60;2.50;;;;;;;;;;5818782;28;20054;-72
2023/09/15 04:35:10;;;;;;;2.85;2.28;;;;;;;;;;5817713;28;20051;-72
2023/09/15 04:38:02;;;;;;;3.08;2.38;;;;;;;;;;5819179;28;20053;-72
2023/09/15 04:40:53;;;;;;;3.70;2.15;;;;;;;;;;5811252;28;20205;-71
2023/09/15 04:43:44;;;;;;;3.80;1.77;;;;;;;;;;5818575;28;20350;-73
2023/09/15 04:46:34;;;;;;;3.50;2.30;;;;;;;;;;5818508;28;20053;-71
2023/09/15 04:49:25;;;;;;;2.75;1.95;;;;;;;;;;5818618;28;20590;-72
2023/09/15 04:52:16;;;;;;;3.15;2.38;;;;;;;;;;5818507;28;20266;-72
2023/09/15 04:55:07;;;;;;;1.95;1.55;;;;;;;;;;5818507;28;20482;-73
2023/09/15 04:57:58;;;;;;;3.25;2.05;;;;;;;;;;5818772;28;20046;-74
2023/09/15 05:00:49;;;;;;;1.98;1.52;;;;;;;;;;5816820;28;20064;-72
2023/09/15 05:03:40;;;;;;;2.35;1.83;;;;;;;;;;5818447;28;20065;-72
2023/09/15 05:06:30;;;;;;;3.10;1.92;;;;;;;;;;5818361;28;20065;-73
2023/09/15 05:09:21;;;;;;;2.10;1.90;;;;;;;;;;5818066;28;20501;-72
2023/09/15 05:12:15;;;;;;;2.53;1.45;;;;;;;;;;5818289;28;20157;-71
2023/09/15 05:15:07;;;;;;;3.03;1.73;;;;;;;;;;5818170;28;20044;-72
2023/09/15 05:17:58;;;;;;;2.75;1.77;;;;;;;;;;5818560;28;20051;-74
2023/09/15 05:20:49;;;;;;;2.65;1.92;;;;;;;;;;5819439;28;20050;-73
2023/09/15 05:23:40;;;;;;;10.95;1.83;;;;;;;;;;5822849;28;20046;-73
2023/09/15 05:26:31;;;;;;;2.78;1.42;;;;;;;;;;5822659;28;20417;-73
2023/09/15 05:29:21;;;;;;;4.35;1.75;;;;;;;;;;5821200;28;20046;-71
2023/09/15 05:32:12;;;;;;;1.35;1.25;;;;;;;;;;5821518;28;20046;-73
2023/09/15 05:35:04;;;;;;;1.52;1.40;;;;;;;;;;5822816;28;20120;-74
2023/09/15 05:37:55;;;;;;;3.22;1.30;;;;;;;;;;5823191;28;20612;-73
2023/09/15 05:40:45;;;;;;;4.50;1.40;;;;;;;;;;5821185;28;20046;-73
2023/09/15 05:43:36;;;;;;;1.27;1.17;;;;;;;;;;5822421;28;20486;-73
2023/09/15 05:46:27;;;;;;;2.28;1.35;;;;;;;;;;5822309;28;20057;-71
2023/09/15 05:49:18;;;;;;;1.55;1.23;;;;;;;;;;5821032;28;20137;-72
2023/09/15 05:52:09;;;;;;;2.70;1.55;;;;;;;;;;5820962;28;20042;-72
2023/09/15 05:55:00;;;;;;;2.08;1.48;;;;;;;;;;5821357;28;20066;-73
2023/09/15 05:57:51;;;;;;;2.25;1.58;;;;;;;;;;5822227;28;20181;-73
2023/09/15 06:00:42;;;;;;;4.22;1.40;;;;;;;;;;5822262;28;20084;-73
2023/09/15 06:03:33;;;;;;;2.72;1.90;;;;;;;;;;5820842;28;20046;-73
2023/09/15 06:06:23;;;;;;;3.50;1.90;;;;;;;;;;5822055;28;20129;-72
2023/09/15 06:09:14;;;;;;;1.25;1.05;;;;;;;;;;5821989;28;20049;-72
2023/09/15 06:12:05;;;;;;;5.38;1.88;;;;;;;;;;5820439;28;20054;-72
2023/09/15 06:14:57;;;;;;;1.92;1.30;;;;;;;;;;5822084;28;20079;-72
2023/09/15 06:17:48;;;;;;;5.07;1.70;;;;;;;;;;5821850;28;20096;-73
2023/09/15 06:20:39;;;;;;;1.20;1.10;;;;;;;;;;5821683;28;20123;-73
2023/09/15 06:23:30;;;;;;;2.10;1.27;;;;;;;;;;5821540;28;20049;-72
2023/09/15 06:26:21;;;;;;;2.85;1.50;;;;;;;;;;5821198;28;20078;-73
2023/09/15 06:29:12;;;;;;;4.28;1.30;;;;;;;;;;5821271;28;20421;-72
2023/09/15 06:32:04;;;;;;;1.90;1.67;;;;;;;;;;5820892;28;20385;-73
2023/09/15 06:34:54;;;;;;;3.08;1.33;;;;;;;;;;5821673;28;20046;-72
2023/09/15 06:37:45;;;;;;;2.05;1.23;;;;;;;;;;5819947;28;20050;-73
2023/09/15 06:40:36;;;;;;;1.55;1.08;;;;;;;;;;5821304;28;20046;-73
2023/09/15 06:43:27;;;;;;;1.30;1.00;;;;;;;;;;5821008;28;20054;-72
2023/09/15 06:46:21;;;;;;;1.42;0.75;;;;;;;;;;5821266;28;20132;-74
2023/09/15 06:49:14;;;;;;;3.83;1.27;;;;;;;;;;5821089;28;20053;-74
2023/09/15 06:52:06;;;;;;;1.25;0.80;;;;;;;;;;5821116;28;20494;-74
2023/09/15 06:54:57;;;;;;;1.83;1.23;;;;;;;;;;5821442;28;20125;-74
2023/09/15 06:57:48;;;;;;;1.48;0.90;;;;;;;;;;5821015;28;20050;-73
2023/09/15 07:00:39;;;;;;;1.98;0.88;;;;;;;;;;5819382;28;20057;-74
2023/09/15 07:03:29;;;;;;;5.03;1.15;;;;;;;;;;5820665;28;20046;-73
2023/09/15 07:06:20;;;;;;;1.88;1.00;;;;;;;;;;5819321;28;20175;-73
2023/09/15 07:09:11;;;;;;;1.30;0.90;;;;;;;;;;5820445;28;20050;-73
2023/09/15 07:12:03;;;;;;;3.53;1.00;;;;;;;;;;5820707;28;20058;-73
2023/09/15 07:14:54;;;;;;;2.50;0.60;;;;;;;;;;5819838;28;20042;-74
2023/09/15 07:17:45;;;;;;;1.48;0.63;;;;;;;;;;5820355;28;20054;-75
2023/09/15 07:20:36;;;;;;;1.42;0.90;;;;;;;;;;5820288;28;20456;-74
2023/09/15 07:23:26;;;;;;;2.40;1.00;;;;;;;;;;5820365;28;20073;-72
2023/09/15 07:26:17;;;;;;;2.45;1.02;;;;;;;;;;5820108;28;20046;-73
2023/09/15 07:29:08;;;;;;;1.23;0.82;;;;;;;;;;5818947;28;20054;-73
2023/09/15 07:31:59;;;;;;;1.15;0.50;;;;;;;;;;5820557;28;20405;-74
2023/09/15 07:34:50;;;;;;;1.38;0.68;;;;;;;;;;5820216;28;20041;-74
2023/09/15 07:37:42;;;;;;;2.15;1.38;;;;;;;;;;5820057;28;20077;-75
2023/09/15 07:40:33;;;;;;;1.38;0.65;;;;;;;;;;5802736;28;20042;-73
2023/09/15 07:43:24;;;;;;;0.73;0.60;;;;;;;;;;5818938;28;20050;-74
2023/09/15 07:46:15;;;;;;;2.33;0.90;;;;;;;;;;5819846;28;20054;-72
2023/09/15 07:49:09;;;;;;;3.15;1.08;;;;;;;;;;5819688;28;20081;-73
2023/09/15 07:52:01;;;;;;;0.85;0.55;;;;;;;;;;5818980;28;20125;-74
2023/09/15 07:54:52;;;;;;;0.52;0.50;;;;;;;;;;5819837;28;20450;-74
2023/09/15 07:57:43;;;;;;;4.78;0.98;;;;;;;;;;5819112;28;20046;-73
2023/09/15 08:00:34;;;;;;;0.80;0.50;;;;;;;;;;5819064;28;20571;-75
2023/09/15 08:03:25;;;;;;;1.00;0.55;;;;;;;;;;5819255;28;20124;-73
2023/09/15 08:06:16;;;;;;;0.80;0.40;;;;;;;;;;5819370;28;20169;-74
2023/09/15 08:09:07;;;;;;;0.43;0.43;;;;;;;;;;5819074;28;20049;-75
2023/09/15 08:12:00;;;;;;;1.48;0.85;;;;;;;;;;5819578;28;20109;-74
2023/09/15 08:14:50;;;;;;;1.45;0.88;;;;;;;;;;5819456;28;20046;-74
2023/09/15 08:17:41;;;;;;;0.55;0.47;;;;;;;;;;5818929;28;20304;-73
2023/09/15 08:20:32;;;;;;;0.93;0.55;;;;;;;;;;5819226;28;20042;-75
2023/09/15 08:23:23;;;;;;;0.80;0.52;;;;;;;;;;5818813;28;20474;-73
2023/09/15 08:26:14;;;;;;;1.50;0.77;;;;;;;;;;5818843;28;20062;-73
2023/09/15 08:29:05;;;;;;;2.35;0.50;;;;;;;;;;5819031;28;20057;-75
2023/09/15 08:31:56;;;;;;;1.67;0.25;;;;;;;;;;5819423;28;20430;-74
2023/09/15 08:34:47;;;;;;;0.55;0.45;;;;;;;;;;5818858;28;20381;-75
2023/09/15 08:37:38;;;;;;;0.73;0.30;;;;;;;;;;5818630;28;20046;-72
2023/09/15 08:40:38;;;;;;;0.50;0.50;;;;;;;;;;5833680;28;20501;-74
2023/09/15 08:43:29;;;;;;;1.75;0.88;;;;;;;;;;5818486;28;20224;-74
2023/09/15 08:46:27;;;;;;;0.93;0.70;;;;;;;;;;5818755;28;20050;-73
2023/09/15 08:49:18;;;;;;;2.50;1.08;;;;;;;;;;5817323;28;20097;-73
2023/09/15 08:52:10;;;;;;;1.17;0.90;;;;;;;;;;5818546;28;20057;-73
2023/09/15 08:55:02;;;;;;;0.47;0.32;;;;;;;;;;5818275;28;20058;-74
2023/09/15 08:57:59;;;;;;;0.90;0.38;;;;;;;;;;5819013;28;20129;-73
2023/09/15 09:00:51;;;;;;;1.20;0.55;;;;;;;;;;5818557;28;20513;-74
2023/09/15 09:03:43;;;;;;;0.40;0.40;;;;;;;;;;5818337;28;20054;-73
2023/09/15 09:06:35;;;;;;;3.28;0.60;;;;;;;;;;5818532;28;20046;-73
2023/09/15 09:09:25;;;;;;;0.80;0.77;;;;;;;;;;5818179;28;20062;-73
2023/09/15 09:12:16;;;;;;;0.40;0.40;;;;;;;;;;5816874;28;20413;-72
2023/09/15 09:15:10;;;;;;;0.73;0.60;;;;;;;;;;5816671;28;20069;-74
2023/09/15 09:18:01;;;;;;;0.60;0.60;;;;;;;;;;5818286;28;20050;-74
2023/09/15 09:20:52;;;;;;;0.45;0.40;;;;;;;;;;5818541;28;20081;-73
2023/09/15 09:23:43;;;;;;;3.38;1.05;;;;;;;;;;5816803;28;20073;-74
2023/09/15 09:26:37;;;;;;;1.02;0.60;;;;;;;;;;5816636;28;20051;-73
2023/09/15 09:29:28;;;;;;;1.05;0.30;;;;;;;;;;5817948;28;20556;-74
2023/09/15 09:32:19;;;;;;;0.32;0.30;;;;;;;;;;5816446;28;20064;-73
2023/09/15 09:35:12;;;;;;;3.17;0.52;;;;;;;;;;5818114;28;20046;-74
2023/09/15 09:38:04;;;;;;;0.40;0.40;;;;;;;;;;5816801;28;20489;-74
2023/09/15 09:40:56;;;;;;;0.85;0.65;;;;;;;;;;5818345;28;20039;-73
2023/09/15 09:43:48;;;;;;;1.88;0.63;;;;;;;;;;5816679;28;20049;-73
2023/09/15 09:46:40;;;;;;;1.02;0.75;;;;;;;;;;5818018;28;20054;-75
2023/09/15 09:49:31;;;;;;;1.52;0.47;;;;;;;;;;5817663;28;20465;-72
2023/09/15 09:52:22;;;;;;;0.52;0.30;;;;;;;;;;5817836;28;20077;-73
2023/09/15 09:55:14;;;;;;;1.95;0.73;;;;;;;;;;5832566;28;20058;-73
2023/09/15 09:58:05;;;;;;;1.88;0.57;;;;;;;;;;5817705;28;20057;-73
2023/09/15 10:00:56;;;;;;;0.70;0.50;;;;;;;;;;5818371;28;20454;-73
2023/09/15 10:03:46;;;;;;;0.45;0.40;;;;;;;;;;5817461;28;20051;-73
2023/09/15 10:06:38;;;;;;;3.08;0.65;;;;;;;;;;5818313;28;20054;-72
2023/09/15 10:09:30;;;;;;;0.57;0.52;;;;;;;;;;5821654;28;20094;-72
2023/09/15 10:12:23;;;;;;;0.40;0.40;;;;;;;;;;5820523;28;20409;-73
2023/09/15 10:15:14;;;;;;;0.43;0.28;;;;;;;;;;5820700;28;20506;-72
2023/09/15 10:18:08;;;;;;;1.83;0.93;;;;;;;;;;5821808;28;20065;-72
2023/09/15 10:20:59;;;;;;;0.55;0.50;;;;;;;;;;5822227;28;20047;-74
2023/09/15 10:24:06;;;;;;;1.15;0.50;;;;;;;;;;5821546;28;20058;-73
2023/09/15 10:26:57;;;;;;;0.22;0.15;;;;;;;;;;5821433;28;20049;-74
2023/09/15 10:29:48;;;;;;;0.57;0.40;;;;;;;;;;5820413;28;20049;-73
2023/09/15 10:32:39;;;;;;;0.80;0.30;;;;;;;;;;5821493;28;20054;-73
2023/09/15 10:35:32;;;;;;;1.50;0.70;;;;;;;;;;5820004;28;20046;-73
2023/09/15 10:38:30;;;;;;;0.35;0.32;;;;;;;;;;5821197;28;20057;-73
2023/09/15 10:41:29;;;;;;;0.73;0.43;;;;;;;;;;5819866;28;20508;-73
2023/09/15 10:44:29;;;;;;;0.63;0.35;;;;;;;;;;5819547;28;20100;-73
2023/09/15 10:47:21;;;;;;;0.40;0.40;;;;;;;;;;5803741;28;20057;-73
2023/09/15 10:50:12;;;;;;;0.28;0.28;;;;;;;;;;5819601;28;20053;-72
2023/09/15 10:53:09;;;;;;;1.33;0.57;;;;;;;;;;5820865;28;20048;-73
2023/09/15 10:56:01;;;;;;;0.32;0.15;;;;;;;;;;5820848;28;20050;-74
2023/09/15 10:58:53;;;;;;;0.98;0.50;;;;;;;;;;5820115;28;20079;-73
2023/09/15 11:01:45;;;;;;;5.80;1.02;;;;;;;;;;5819313;28;20061;-73
2023/09/15 11:04:35;;;;;;;1.63;0.93;;;;;;;;;;5819576;28;20043;-72
2023/09/15 11:07:28;;;;;;;1.58;0.70;;;;;;;;;;5820746;28;20493;-73
2023/09/15 11:10:19;;;;;;;1.85;0.82;;;;;;;;;;5820667;28;20053;-73
2023/09/15 11:13:10;;;;;;;0.30;0.30;;;;;;;;;;5820834;28;20046;-73
2023/09/15 11:16:01;;;;;;;2.10;0.65;;;;;;;;;;5820702;28;20054;-73
2023/09/15 11:18:52;;;;;;;1.05;0.60;;;;;;;;;;5820783;28;20373;-73
2023/09/15 11:21:47;;;;;;;1.30;0.63;;;;;;;;;;5819048;28;20058;-73
2023/09/15 11:24:38;;;;;;;2.15;0.60;;;;;;;;;;5820491;28;20413;-72
2023/09/15 11:27:33;;;;;;;0.77;0.65;;;;;;;;;;5820294;28;20056;-73
2023/09/15 11:30:27;;;;;;;0.50;0.47;;;;;;;;;;5818951;28;20045;-73
2023/09/15 11:33:19;;;;;;;0.68;0.43;;;;;;;;;;5820063;28;20073;-73
2023/09/15 11:36:10;;;;;;;1.55;0.32;;;;;;;;;;5818747;28;20490;-72
2023/09/15 11:39:11;;;;;;;0.65;0.40;;;;;;;;;;5835111;28;20053;-73
2023/09/15 11:42:10;;;;;;;0.85;0.43;;;;;;;;;;5819854;28;20047;-73
2023/09/15 11:45:01;;;;;;;2.13;1.02;;;;;;;;;;5818511;28;20057;-74
2023/09/15 11:47:55;;;;;;;2.88;0.65;;;;;;;;;;5818836;28;20070;-72
2023/09/15 11:50:46;;;;;;;0.32;0.32;;;;;;;;;;5834726;28;20050;-72
2023/09/15 11:53:37;;;;;;;0.55;0.52;;;;;;;;;;5818566;28;20054;-73
2023/09/15 11:56:28;;;;;;;0.55;0.47;;;;;;;;;;5819570;28;20042;-73
2023/09/15 11:59:20;;;;;;;1.70;0.70;;;;;;;;;;5819315;28;20073;-73
2023/09/15 12:02:10;;;;;;;1.45;0.40;;;;;;;;;;5817866;28;20065;-72
2023/09/15 12:05:01;;;;;;;3.40;1.00;;;;;;;;;;5819268;28;20421;-73
2023/09/15 12:07:52;;;;;;;1.60;0.77;;;;;;;;;;5818480;28;20053;-72
2023/09/15 12:10:43;;;;;;;2.05;0.85;;;;;;;;;;5819174;28;20050;-73
2023/09/15 12:13:39;;;;;;;0.30;0.30;;;;;;;;;;5817788;28;20053;-73
2023/09/15 12:16:31;;;;;;;3.22;0.60;;;;;;;;;;5817611;28;20061;-74
2023/09/15 12:19:23;;;;;;;3.60;1.15;;;;;;;;;;5818675;28;20051;-72
2023/09/15 12:22:17;;;;;;;1.00;0.40;;;;;;;;;;5812278;28;20089;-73
2023/09/15 12:25:14;;;;;;;1.05;0.52;;;;;;;;;;5816578;28;20054;-72
2023/09/15 12:28:06;;;;;;;1.53;0.80;;;;;;;;;;5798667;28;20182;-73
2023/09/15 12:31:00;;;;;;;0.30;0.30;;;;;;;;;;5795769;28;20047;-73
2023/09/15 12:33:55;;;;;;;0.47;0.40;;;;;;;;;;5818267;28;20046;-74
2023/09/15 12:36:49;;;;;;;0.57;0.25;;;;;;;;;;5818172;28;20053;-73
2023/09/15 12:39:40;;;;;;;0.95;0.35;;;;;;;;;;5818382;28;20054;-73
2023/09/15 12:42:30;;;;;;;4.72;0.98;;;;;;;;;;5816899;28;20096;-72
2023/09/15 12:45:22;;;;;;;1.27;0.90;;;;;;;;;;5818319;28;20042;-72
2023/09/15 12:48:13;;;;;;;2.13;0.40;;;;;;;;;;5800329;28;20046;-73
2023/09/15 12:51:04;;;;;;;0.50;0.30;;;;;;;;;;5815612;28;20136;-74
2023/09/15 12:53:55;;;;;;;0.68;0.40;;;;;;;;;;5806712;28;20038;-72
2023/09/15 12:56:52;;;;;;;0.50;0.50;;;;;;;;;;5813420;28;20042;-73
2023/09/15 12:59:43;;;;;;;1.47;0.63;;;;;;;;;;5808715;28;20038;-73
2023/09/15 13:02:34;;;;;;;1.35;0.57;;;;;;;;;;5811072;28;20369;-73
2023/09/15 13:05:25;;;;;;;1.25;0.80;;;;;;;;;;5808428;28;20057;-73
2023/09/15 13:08:16;;;;;;;0.52;0.38;;;;;;;;;;5826106;28;20039;-73
2023/09/15 13:11:07;;;;;;;0.10;0.03;;;;;;;;;;5817320;28;20057;-73
2023/09/15 13:13:58;;;;;;;0.93;0.28;;;;;;;;;;5817884;28;20054;-76
2023/09/15 13:16:49;;;;;;;0.60;0.30;;;;;;;;;;5816283;28;20050;-72
2023/09/15 13:19:39;;;;;;;1.52;0.75;;;;;;;;;;5817643;28;20050;-72
2023/09/15 13:22:30;;;;;;;1.73;0.77;;;;;;;;;;5814161;28;20516;-72
2023/09/15 13:25:21;;;;;;;1.92;1.00;;;;;;;;;;5817780;28;20065;-71
2023/09/15 13:28:14;;;;;;;1.02;0.65;;;;;;;;;;5816045;28;20046;-72
2023/09/15 13:31:05;;;;;;;1.30;1.17;;;;;;;;;;5817515;28;20053;-72
2023/09/15 13:33:56;;;;;;;1.30;0.57;;;;;;;;;;5817259;28;20612;-73
2023/09/15 13:36:47;;;;;;;1.58;1.00;;;;;;;;;;5812390;28;20413;-73
2023/09/15 13:39:39;;;;;;;0.60;0.52;;;;;;;;;;5817544;28;20042;-72
2023/09/15 13:42:36;;;;;;;0.82;0.43;;;;;;;;;;5819400;28;20133;-72
2023/09/15 13:45:27;;;;;;;0.50;0.45;;;;;;;;;;5819776;28;20593;-72
2023/09/15 13:48:20;;;;;;;1.27;0.30;;;;;;;;;;5820469;28;20053;-72
2023/09/15 13:51:11;;;;;;;1.75;0.68;;;;;;;;;;5820151;28;20062;-73
2023/09/15 13:54:05;;;;;;;0.30;0.30;;;;;;;;;;5821514;28;20066;-72
2023/09/15 13:56:55;;;;;;;0.70;0.50;;;;;;;;;;5820740;28;20046;-72
2023/09/15 13:59:46;;;;;;;1.52;0.68;;;;;;;;;;5821767;28;20050;-72
2023/09/15 14:02:38;;;;;;;0.85;0.73;;;;;;;;;;5821163;28;20046;-71
2023/09/15 14:05:29;;;;;;;0.43;0.30;;;;;;;;;;5820257;28;20051;-72
2023/09/15 14:08:20;;;;;;;3.17;0.85;;;;;;;;;;5820237;28;20061;-72
2023/09/15 14:11:12;;;;;;;1.42;0.60;;;;;;;;;;5821020;28;20042;-72
2023/09/15 14:14:03;;;;;;;1.30;0.63;;;;;;;;;;5820068;28;20052;-72
2023/09/15 14:16:55;;;;;;;1.17;0.43;;;;;;;;;;5819970;28;20443;-72
2023/09/15 14:19:47;;;;;;;1.40;0.52;;;;;;;;;;5817588;28;20035;-71
2023/09/15 14:22:38;;;;;;;0.68;0.40;;;;;;;;;;5819520;28;20078;-72
2023/09/15 14:25:29;;;;;;;0.68;0.50;;;;;;;;;;5820967;28;20043;-73
2023/09/15 14:28:20;;;;;;;1.27;0.77;;;;;;;;;;5820760;28;20043;-72
2023/09/15 14:31:11;;;;;;;1.05;0.60;;;;;;;;;;5820194;28;20045;-73
2023/09/15 14:34:01;;;;;;;1.00;0.68;;;;;;;;;;5819416;28;20084;-72
2023/09/15 14:36:52;;;;;;;0.55;0.30;;;;;;;;;;5820953;28;20478;-73
2023/09/15 14:39:43;;;;;;;2.33;1.02;;;;;;;;;;5819404;28;20141;-73
2023/09/15 14:42:34;;;;;;;27.20;1.25;;;;;;;;;;5819061;28;20432;-73
2023/09/15 14:45:26;;;;;;;1.83;0.60;;;;;;;;;;5820628;28;20529;-72
2023/09/15 14:48:17;;;;;;;3.47;0.85;;;;;;;;;;5820489;28;20050;-73
2023/09/15 14:51:08;;;;;;;3.30;0.40;;;;;;;;;;5818945;28;20050;-73
2023/09/15 14:53:59;;;;;;;0.63;0.43;;;;;;;;;;5819840;28;20069;-72
2023/09/15 14:56:52;;;;;;;1.02;0.47;;;;;;;;;;5813402;28;20046;-73
2023/09/15 14:59:43;;;;;;;2.00;0.95;;;;;;;;;;5835266;28;20058;-73
2023/09/15 15:02:34;;;;;;;1.40;0.95;;;;;;;;;;5818516;28;20050;-72
2023/09/15 15:05:25;;;;;;;1.05;0.65;;;;;;;;;;5820319;28;20211;-72
2023/09/15 15:08:16;;;;;;;1.05;0.70;;;;;;;;;;5818747;28;20042;-71
2023/09/15 15:11:06;;;;;;;1.45;0.70;;;;;;;;;;5818354;28;20671;-71
2023/09/15 15:13:58;;;;;;;1.17;0.50;;;;;;;;;;5815160;28;20042;-72
2023/09/15 15:16:49;;;;;;;4.03;0.77;;;;;;;;;;5816771;28;20050;-72
2023/09/15 15:19:40;;;;;;;1.08;0.90;;;;;;;;;;5819294;28;20054;-72
2023/09/15 15:22:31;;;;;;;1.48;0.82;;;;;;;;;;5810870;28;20541;-72
2023/09/15 15:25:22;;;;;;;1.63;0.82;;;;;;;;;;5816293;28;20074;-72
2023/09/15 15:28:12;;;;;;;1.05;0.50;;;;;;;;;;5809766;28;20043;-72
2023/09/15 15:31:16;;;;;;;1.08;0.93;;;;;;;;;;5815928;28;20397;-72
2023/09/15 15:34:07;;;;;;;2.40;0.95;;;;;;;;;;5819339;28;20054;-73
2023/09/15 15:37:00;;;;;;;3.90;1.00;;;;;;;;;;5819718;28;20050;-72
2023/09/15 15:39:51;;;;;;;2.22;0.95;;;;;;;;;;5819687;28;20046;-72
2023/09/15 15:42:42;;;;;;;2.13;1.60;;;;;;;;;;5813469;28;20043;-72
2023/09/15 15:45:33;;;;;;;0.73;0.60;;;;;;;;;;5819581;28;20422;-73
2023/09/15 15:48:24;;;;;;;0.70;0.60;;;;;;;;;;5808045;28;20112;-72
2023/09/15 15:51:15;;;;;;;0.77;0.68;;;;;;;;;;5817941;28;20435;-72
2023/09/15 15:54:06;;;;;;;1.08;0.40;;;;;;;;;;5817919;28;20049;-74
2023/09/15 15:56:57;;;;;;;2.50;1.08;;;;;;;;;;5819436;28;20393;-73
2023/09/15 15:59:47;;;;;;;2.45;0.88;;;;;;;;;;5817516;28;20520;-73
2023/09/15 16:02:38;;;;;;;1.48;0.80;;;;;;;;;;5819026;28;20046;-73
2023/09/15 16:05:33;;;;;;;2.92;0.80;;;;;;;;;;5816666;28;20042;-72
2023/09/15 16:08:24;;;;;;;1.05;0.73;;;;;;;;;;5819025;28;20112;-72
2023/09/15 16:11:15;;;;;;;1.33;1.00;;;;;;;;;;5817429;28;20090;-73
2023/09/15 16:14:06;;;;;;;0.70;0.43;;;;;;;;;;5818693;28;20050;-73
2023/09/15 16:16:57;;;;;;;1.30;1.05;;;;;;;;;;5817772;28;20053;-73
2023/09/15 16:19:48;;;;;;;1.67;1.25;;;;;;;;;;5818830;28;20411;-72
2023/09/15 16:22:39;;;;;;;1.00;0.85;;;;;;;;;;5818805;28;20042;-73
2023/09/15 16:25:29;;;;;;;1.05;0.95;;;;;;;;;;5818693;28;20047;-73
2023/09/15 16:28:20;;;;;;;0.63;0.60;;;;;;;;;;5818512;28;20053;-73
2023/09/15 16:31:11;;;;;;;1.45;0.98;;;;;;;;;;5818428;28;20493;-72
2023/09/15 16:34:02;;;;;;;1.05;0.65;;;;;;;;;;5818343;28;20046;-72
2023/09/15 16:36:53;;;;;;;2.67;1.33;;;;;;;;;;5818972;28;20572;-72
2023/09/15 16:39:43;;;;;;;0.80;0.70;;;;;;;;;;5817474;28;20050;-74
2023/09/15 16:42:34;;;;;;;2.05;1.35;;;;;;;;;;5816959;28;20398;-72
2023/09/15 16:45:25;;;;;;;0.85;0.82;;;;;;;;;;5818139;28;20068;-72
2023/09/15 16:48:16;;;;;;;2.38;1.10;;;;;;;;;;5817128;28;20428;-72
2023/09/15 16:51:07;;;;;;;1.25;1.15;;;;;;;;;;5817823;28;20188;-73
2023/09/15 16:53:58;;;;;;;1.50;0.90;;;;;;;;;;5818584;28;20069;-72
2023/09/15 16:56:49;;;;;;;2.58;1.13;;;;;;;;;;5816688;28;20501;-72
2023/09/15 16:59:40;;;;;;;2.17;1.30;;;;;;;;;;5818071;28;20050;-72
2023/09/15 17:02:33;;;;;;;2.95;1.10;;;;;;;;;;5832922;28;20442;-73
2023/09/15 17:05:26;;;;;;;2.20;1.38;;;;;;;;;;5816342;28;20049;-73
2023/09/15 17:08:18;;;;;;;2.38;1.35;;;;;;;;;;5817894;28;20038;-73
2023/09/15 17:11:10;;;;;;;4.95;1.20;;;;;;;;;;5817866;28;20051;-73